Time;durP1;ratioP1;P1;durP2;ratioP2;P2;SDS_P1;SDS_P2;PMS_P1;PMS_P2;Temp;Humidity;BMP_temperature;BMP_pressure;BME280_temperature;BME280_humidity;BME280_pressure;Samples;Min_cycle;Max_cycle;Signal;HPM_P1;HPM_P2
2021/04/26 00:00:56;;;;;;;11.17;7.50;;;;;;;6.24;73.29;95732.30;1779189;81;21279;-62
2021/04/26 00:03:24;;;;;;;14.10;8.50;;;;;;;6.25;73.15;95731.45;1779546;81;21153;-62
2021/04/26 00:05:51;;;;;;;9.10;6.70;;;;;;;6.26;72.54;95744.98;1779142;81;21342;-62
2021/04/26 00:08:18;;;;;;;11.20;7.97;;;;;;;6.16;72.58;95745.84;1779408;81;21275;-62
2021/04/26 00:10:47;;;;;;;10.30;6.30;;;;;;;6.15;72.76;95745.39;1779489;81;21149;-62
2021/04/26 00:13:14;;;;;;;11.87;7.67;;;;;;;6.10;73.25;95749.75;1779531;81;21129;-62
2021/04/26 00:15:44;;;;;;;9.80;7.40;;;;;;;5.90;72.99;95749.27;1779123;81;21275;-62
2021/04/26 00:18:13;;;;;;;10.17;6.80;;;;;;;5.87;73.01;95749.24;1779338;81;21271;-62
2021/04/26 00:20:42;;;;;;;12.27;7.57;;;;;;;5.74;72.69;95747.47;1779395;81;21141;-63
2021/04/26 00:23:11;;;;;;;10.50;6.83;;;;;;;5.69;72.51;95747.45;1785555;80;21180;-62
2021/04/26 00:25:39;;;;;;;12.60;8.07;;;;;;;5.66;72.43;95747.90;1787970;80;21149;-62
2021/04/26 00:28:08;;;;;;;8.20;5.90;;;;;;;5.58;72.20;95748.74;1787733;80;21709;-62
2021/04/26 00:30:36;;;;;;;8.23;5.93;;;;;;;5.56;72.33;95746.55;1788079;80;21307;-62
2021/04/26 00:33:04;;;;;;;10.93;8.07;;;;;;;5.55;72.11;95742.20;1788088;80;21145;-62
2021/04/26 00:35:32;;;;;;;11.97;8.27;;;;;;;5.58;72.53;95738.27;1787634;80;21287;-62
2021/04/26 00:38:00;;;;;;;9.27;7.00;;;;;;;5.60;71.79;95741.78;1787591;80;21133;-62
2021/04/26 00:40:27;;;;;;;10.37;7.00;;;;;;;5.59;71.72;95752.23;1787836;80;21173;-62
2021/04/26 00:42:55;;;;;;;11.23;7.43;;;;;;;5.54;71.55;95746.97;1788000;80;21307;-62
2021/04/26 00:45:25;;;;;;;10.30;6.50;;;;;;;5.50;71.42;95749.60;1788056;80;21287;-62
2021/04/26 00:47:55;;;;;;;10.13;6.57;;;;;;;5.44;71.27;95755.66;1787925;80;21097;-62
2021/04/26 00:50:27;;;;;;;10.00;6.80;;;;;;;5.36;71.68;95755.63;1787925;80;21710;-62
2021/04/26 00:52:57;;;;;;;13.30;8.27;;;;;;;5.28;71.96;95754.73;1787422;80;21122;-62
2021/04/26 00:55:29;;;;;;;12.07;8.07;;;;;;;5.28;71.86;95757.79;1787791;80;21109;-62
2021/04/26 00:57:57;;;;;;;9.63;6.77;;;;;;;5.27;71.82;95761.28;1787905;80;21260;-62
2021/04/26 01:00:27;;;;;;;15.73;8.20;;;;;;;5.18;72.10;95768.20;1759287;80;21132;-62
2021/04/26 01:02:55;;;;;;;9.97;6.93;;;;;;;5.14;72.69;95766.86;1787973;80;21286;-62
2021/04/26 01:05:30;;;;;;;10.80;7.20;;;;;;;5.23;72.28;95771.28;1788022;80;21697;-62
2021/04/26 01:07:58;;;;;;;12.83;8.10;;;;;;;5.25;72.55;95769.55;1787762;80;21746;-62
2021/04/26 01:10:32;;;;;;;8.53;6.03;;;;;;;5.27;72.61;95774.37;1784353;80;21732;-62
2021/04/26 01:13:32;;;;;;;11.17;8.90;;;;;;;5.21;73.43;95770.82;1759990;80;21129;-62
2021/04/26 01:16:14;;;;;;;11.07;6.60;;;;;;;5.20;73.34;95770.84;1787767;80;21157;-62
2021/04/26 01:19:00;;;;;;;11.95;8.60;;;;;;;5.14;73.68;95776.02;1763957;80;21117;-62
2021/04/26 01:22:04;;;;;;;12.03;6.77;;;;;;;5.11;73.72;95780.80;1787976;80;21255;-62
2021/04/26 01:25:02;;;;;;;13.17;7.00;;;;;;;5.08;73.73;95786.02;1787757;80;21725;-62
2021/04/26 01:28:07;;;;;;;8.60;6.03;;;;;;;4.96;73.21;95788.55;1788112;80;21126;-62
2021/04/26 01:30:43;;;;;;;7.83;6.00;;;;;;;4.85;73.00;95792.86;1787933;80;21283;-62
2021/04/26 01:33:25;;;;;;;11.60;7.90;;;;;;;4.67;73.71;95790.55;1787606;80;21271;-62
2021/04/26 01:35:59;;;;;;;8.77;6.40;;;;;;;4.61;73.50;95787.01;1760404;80;21105;-62
2021/04/26 01:38:40;;;;;;;11.27;7.63;;;;;;;4.57;73.19;95788.73;1787866;80;21697;-62
2021/04/26 01:41:10;;;;;;;13.27;8.27;;;;;;;4.50;73.51;95788.24;1787923;80;21275;-62
2021/04/26 01:43:40;;;;;;;11.50;6.97;;;;;;;4.43;74.03;95786.00;1759846;80;21130;-62
2021/04/26 01:46:12;;;;;;;12.00;7.80;;;;;;;4.40;74.10;95783.81;1788171;80;21717;-61
2021/04/26 01:48:45;;;;;;;12.07;7.47;;;;;;;4.43;73.96;95793.84;1788051;80;21275;-62
2021/04/26 01:51:14;;;;;;;11.83;8.30;;;;;;;4.43;74.30;95788.61;1759757;80;21153;-63
2021/04/26 01:53:44;;;;;;;12.67;8.87;;;;;;;4.39;74.73;95788.60;1759808;80;21144;-62
2021/04/26 01:56:15;;;;;;;10.70;7.00;;;;;;;4.39;74.91;95781.62;1788159;80;21709;-62
2021/04/26 01:58:49;;;;;;;12.28;8.08;;;;;;;4.38;75.05;95779.86;1788149;80;21707;-62
2021/04/26 02:01:21;;;;;;;13.07;8.70;;;;;;;4.37;75.04;95776.82;1788110;80;21136;-62
2021/04/26 02:03:57;;;;;;;12.93;9.18;;;;;;;4.36;75.11;95776.80;1788052;80;21122;-62
2021/04/26 02:06:33;;;;;;;13.90;8.40;;;;;;;4.36;74.95;95784.23;1771454;80;21248;-62
2021/04/26 02:09:12;;;;;;;11.20;7.60;;;;;;;4.29;74.58;95784.59;1726973;83;21642;-62
2021/04/26 02:11:40;;;;;;;14.37;9.03;;;;;;;4.27;74.56;95789.36;1787976;80;21287;-62
2021/04/26 02:14:11;;;;;;;13.47;7.77;;;;;;;4.23;74.57;95784.52;1787937;80;21717;-62
2021/04/26 02:16:40;;;;;;;11.67;6.63;;;;;;;4.22;74.43;95788.45;1787906;80;21284;-61
2021/04/26 02:19:08;;;;;;;12.47;7.87;;;;;;;4.18;74.44;95786.66;1788111;80;21567;-62
2021/04/26 02:21:36;;;;;;;15.07;7.97;;;;;;;4.12;74.84;95791.39;1787659;80;21142;-62
2021/04/26 02:24:05;;;;;;;13.00;8.50;;;;;;;4.08;74.80;95797.44;1785449;80;21172;-62
2021/04/26 02:26:34;;;;;;;11.97;8.67;;;;;;;4.03;74.83;95793.50;1756815;80;21149;-62
2021/04/26 02:29:03;;;;;;;11.27;8.53;;;;;;;4.06;74.82;95796.58;1785237;80;21559;-62
2021/04/26 02:31:34;;;;;;;9.30;6.60;;;;;;;4.06;74.92;95795.27;1756842;80;21153;-62
2021/04/26 02:34:10;;;;;;;10.87;7.53;;;;;;;4.12;75.46;95794.01;1785296;80;21587;-62
2021/04/26 02:36:44;;;;;;;10.93;7.63;;;;;;;4.15;76.23;95798.38;1784144;80;21271;-62
2021/04/26 02:39:13;;;;;;;12.68;8.85;;;;;;;4.27;75.76;95800.67;1785441;80;21090;-62
2021/04/26 02:41:43;;;;;;;12.70;9.07;;;;;;;4.39;75.26;95797.75;1785217;80;21295;-62
2021/04/26 02:44:24;;;;;;;15.25;9.45;;;;;;;4.44;75.00;95801.27;1785302;80;21279;-62
2021/04/26 02:46:59;;;;;;;12.97;7.97;;;;;;;4.39;74.65;95796.44;1785394;80;21124;-62
2021/04/26 02:49:29;;;;;;;10.60;6.60;;;;;;;4.37;74.41;95795.11;1756854;80;21161;-62
2021/04/26 02:52:01;;;;;;;13.90;8.33;;;;;;;4.23;74.88;95798.02;1785000;80;21137;-62
2021/04/26 02:54:30;;;;;;;9.37;7.30;;;;;;;4.11;75.42;95801.41;1785382;80;21130;-62
2021/04/26 02:56:58;;;;;;;13.93;8.63;;;;;;;3.95;75.98;95797.75;1785246;80;21267;-62
2021/04/26 02:59:29;;;;;;;12.17;7.77;;;;;;;3.89;75.70;95794.66;1756751;80;21140;-62
2021/04/26 03:02:00;;;;;;;12.43;6.42;;;;;;;3.81;75.76;95800.67;1785255;80;21247;-62
2021/04/26 03:04:37;;;;;;;12.57;6.27;;;;;;;3.69;75.95;95795.74;1758219;80;21156;-61
2021/04/26 03:07:06;;;;;;;11.30;6.87;;;;;;;3.55;75.94;95808.18;1785262;80;21158;-62
2021/04/26 03:09:39;;;;;;;11.43;6.33;;;;;;;3.44;76.54;95805.02;1784279;80;21644;-62
2021/04/26 03:12:09;;;;;;;11.53;6.60;;;;;;;3.35;76.79;95808.83;1785141;80;21709;-62
2021/04/26 03:14:41;;;;;;;19.05;9.58;;;;;;;3.30;76.72;95801.78;1784318;80;21291;-62
2021/04/26 03:17:10;;;;;;;16.00;9.60;;;;;;;3.23;76.42;95797.80;1785027;80;21579;-62
2021/04/26 03:19:42;;;;;;;13.83;8.60;;;;;;;3.25;76.70;95801.72;1785381;80;21697;-62
2021/04/26 03:22:12;;;;;;;14.17;8.87;;;;;;;3.26;76.49;95795.66;1785079;80;21686;-62
2021/04/26 03:24:42;;;;;;;12.60;8.70;;;;;;;3.22;76.58;95789.95;1785058;80;21686;-62
2021/04/26 03:27:11;;;;;;;10.70;7.07;;;;;;;3.22;76.36;95796.03;1785100;80;21158;-62
2021/04/26 03:29:41;;;;;;;16.40;8.63;;;;;;;3.24;76.32;95798.67;1785146;80;21165;-62
2021/04/26 03:32:14;;;;;;;7.30;5.20;;;;;;;3.25;76.08;95805.62;1756995;80;21606;-61
2021/04/26 03:34:46;;;;;;;13.93;8.40;;;;;;;3.27;76.02;95810.88;1784494;80;21129;-62
2021/04/26 03:37:16;;;;;;;12.50;8.23;;;;;;;3.22;75.89;95810.81;1785327;80;21172;-62
2021/04/26 03:39:46;;;;;;;12.13;8.87;;;;;;;3.25;75.88;95821.27;1784982;80;21267;-61
2021/04/26 03:42:18;;;;;;;19.70;9.70;;;;;;;3.28;75.90;95814.82;1785053;80;21295;-61
2021/04/26 03:44:49;;;;;;;13.70;8.55;;;;;;;3.27;76.00;95816.96;1785223;80;21090;-62
2021/04/26 03:47:35;;;;;;;15.20;8.63;;;;;;;3.33;76.37;95816.19;1785291;80;21275;-64
2021/04/26 03:50:27;;;;;;;13.30;8.40;;;;;;;3.42;76.37;95818.46;1785306;80;21137;-64
2021/04/26 03:53:15;;;;;;;12.03;8.37;;;;;;;3.52;75.92;95820.76;1780417;80;21741;-63
2021/04/26 03:56:01;;;;;;;10.77;7.23;;;;;;;3.59;75.88;95821.28;1785146;80;21263;-63
2021/04/26 03:58:30;;;;;;;12.13;7.63;;;;;;;3.69;75.26;95832.28;1785026;80;21137;-62
2021/04/26 04:00:58;;;;;;;11.63;7.33;;;;;;;3.70;74.18;95833.14;1784988;80;21145;-62
2021/04/26 04:03:26;;;;;;;11.77;7.53;;;;;;;3.77;73.23;95829.75;1785089;80;21306;-62
2021/04/26 04:05:54;;;;;;;10.93;7.00;;;;;;;3.80;72.58;95831.08;1785177;80;21130;-62
2021/04/26 04:08:40;;;;;;;13.40;7.60;;;;;;;3.76;71.21;95830.63;1785003;80;21698;-62
2021/04/26 04:11:11;;;;;;;10.37;7.63;;;;;;;3.80;71.07;95831.52;1780255;80;21120;-62
2021/04/26 04:13:55;;;;;;;12.30;8.00;;;;;;;3.79;71.26;95822.82;1784915;80;21283;-62
2021/04/26 04:16:24;;;;;;;11.60;6.97;;;;;;;3.78;71.52;95824.09;1785216;80;21133;-62
2021/04/26 04:18:52;;;;;;;12.27;7.13;;;;;;;3.75;70.85;95829.29;1785106;80;21283;-62
2021/04/26 04:21:20;;;;;;;12.67;7.17;;;;;;;3.72;70.37;95827.95;1785165;80;21133;-62
2021/04/26 04:23:47;;;;;;;8.70;5.17;;;;;;;3.74;69.33;95839.30;1782416;80;21161;-62
2021/04/26 04:26:17;;;;;;;10.43;5.73;;;;;;;3.73;69.03;95832.30;1757201;81;21636;-62
2021/04/26 04:28:48;;;;;;;8.47;5.90;;;;;;;3.77;68.12;95841.50;1778224;80;21282;-61
2021/04/26 04:31:17;;;;;;;6.67;5.17;;;;;;;3.84;67.87;95844.63;1774515;81;21319;-62
2021/04/26 04:33:55;;;;;;;7.70;5.40;;;;;;;3.88;66.81;95848.14;1776486;80;21280;-62
2021/04/26 04:36:41;;;;;;;9.47;5.50;;;;;;;3.89;66.00;95856.00;1779240;81;21130;-61
2021/04/26 04:39:11;;;;;;;7.63;4.93;;;;;;;3.89;66.23;95861.22;1742889;80;21133;-62
2021/04/26 04:41:44;;;;;;;;;;;;;;;3.93;66.12;95858.23;1782091;81;21126;-61
2021/04/26 04:44:12;;;;;;;10.70;5.53;;;;;;;3.99;66.20;95866.12;1779269;81;20413;-61
2021/04/26 04:46:39;;;;;;;11.00;5.47;;;;;;;4.00;65.22;95861.33;1779615;81;21157;-61
2021/04/26 04:49:12;;;;;;;8.23;5.00;;;;;;;4.04;64.61;95860.95;1778390;80;21162;-62
2021/04/26 04:51:40;;;;;;;7.50;5.03;;;;;;;4.16;64.61;95866.72;1779306;81;21169;-62
2021/04/26 04:54:10;;;;;;;6.43;4.00;;;;;;;4.17;64.44;95866.74;1779322;81;21602;-62
2021/04/26 04:56:54;;;;;;;4.87;3.50;;;;;;;4.17;63.03;95873.71;1778799;81;21275;-62
2021/04/26 04:59:23;;;;;;;8.23;5.33;;;;;;;4.21;63.86;95875.47;1779229;81;21142;-62
2021/04/26 05:01:52;;;;;;;4.60;3.60;;;;;;;4.37;63.25;95880.45;1778311;80;21248;-62
2021/04/26 05:04:39;;;;;;;8.00;4.70;;;;;;;4.48;61.88;95881.41;1779602;81;21137;-62
2021/04/26 05:07:14;;;;;;;8.47;4.40;;;;;;;4.47;60.03;95890.13;1775976;81;21779;-61
2021/04/26 05:10:00;;;;;;;6.73;3.90;;;;;;;4.42;59.79;95885.28;1779283;81;21236;-61
2021/04/26 05:12:33;;;;;;;7.50;4.20;;;;;;;4.29;58.14;95889.08;1745537;80;21165;-62
2021/04/26 05:15:05;;;;;;;6.63;3.73;;;;;;;4.30;59.11;95889.95;1779525;81;21126;-62
2021/04/26 05:17:33;;;;;;;6.97;3.80;;;;;;;4.37;60.16;95896.98;1779410;81;21173;-62
2021/04/26 05:20:04;;;;;;;5.87;3.23;;;;;;;4.27;58.74;95898.63;1779662;81;21152;-62
2021/04/26 05:22:35;;;;;;;5.17;3.23;;;;;;;4.32;58.11;95898.68;1757762;81;21095;-62
2021/04/26 05:25:08;;;;;;;5.13;2.83;;;;;;;4.37;58.15;95903.52;1732803;81;21141;-61
2021/04/26 05:27:36;;;;;;;6.28;3.55;;;;;;;4.39;56.28;95908.77;1759246;81;21666;-61
2021/04/26 05:30:08;;;;;;;9.63;4.97;;;;;;;4.41;57.20;95902.70;1758921;81;21287;-62
2021/04/26 05:32:36;;;;;;;9.93;4.80;;;;;;;4.45;56.97;95903.16;1759149;81;21239;-62
2021/04/26 05:35:07;;;;;;;8.07;4.03;;;;;;;4.48;56.61;95915.37;1758772;81;21654;-62
2021/04/26 05:37:35;;;;;;;6.73;3.57;;;;;;;4.55;56.69;95919.38;1729282;81;21149;-62
2021/04/26 05:40:05;;;;;;;6.90;3.17;;;;;;;4.59;56.29;95924.66;1758987;81;21156;-62
2021/04/26 05:42:33;;;;;;;5.37;3.43;;;;;;;4.54;54.13;95930.70;1759295;81;21136;-61
2021/04/26 05:45:01;;;;;;;8.00;2.90;;;;;;;4.62;55.00;95928.16;1759046;81;21299;-61
2021/04/26 05:47:38;;;;;;;5.70;2.67;;;;;;;4.72;56.37;95929.13;1759102;81;21681;-62
2021/04/26 05:50:07;;;;;;;5.20;3.03;;;;;;;4.91;55.79;95923.22;1758950;81;21694;-62
2021/04/26 05:52:34;;;;;;;4.63;3.20;;;;;;;4.97;54.55;95911.48;1759152;81;21156;-62
2021/04/26 05:55:03;;;;;;;3.40;2.30;;;;;;;5.02;54.61;95916.76;1758953;81;21701;-62
2021/04/26 05:57:31;;;;;;;4.50;2.87;;;;;;;5.14;56.00;95914.64;1759275;81;21148;-62
2021/04/26 05:59:59;;;;;;;7.40;2.83;;;;;;;5.13;52.87;95922.94;1758925;81;21752;-62
2021/04/26 06:02:26;;;;;;;4.57;2.93;;;;;;;5.24;54.59;95919.11;1759173;81;21310;-62
2021/04/26 06:04:54;;;;;;;5.67;3.83;;;;;;;5.31;54.97;95919.57;1759014;81;21295;-62
2021/04/26 06:07:21;;;;;;;8.43;3.47;;;;;;;5.37;52.81;95915.70;1759256;81;21140;-61
2021/04/26 06:09:49;;;;;;;6.77;3.23;;;;;;;5.37;53.10;95917.45;1758826;81;21749;-62
2021/04/26 06:12:17;;;;;;;5.40;2.70;;;;;;;5.38;51.42;95914.83;1758837;81;21299;-62
2021/04/26 06:14:44;;;;;;;6.07;3.10;;;;;;;5.44;51.81;95915.30;1759076;81;21212;-62
2021/04/26 06:17:12;;;;;;;4.57;3.47;;;;;;;5.46;50.13;95917.94;1758966;81;21271;-62
2021/04/26 06:19:40;;;;;;;4.83;2.60;;;;;;;5.49;50.74;95924.05;1758967;81;21299;-62
2021/04/26 06:22:07;;;;;;;5.07;3.20;;;;;;;5.49;50.14;95917.50;1759057;81;21153;-62
2021/04/26 06:24:36;;;;;;;6.13;3.07;;;;;;;5.51;47.17;95922.32;1770373;80;21725;-62
2021/04/26 06:27:05;;;;;;;5.10;2.90;;;;;;;5.47;48.88;95925.81;1779452;81;21109;-62
2021/04/26 06:29:33;;;;;;;5.23;2.80;;;;;;;5.54;48.40;95928.88;1779406;81;21279;-62
2021/04/26 06:32:01;;;;;;;4.03;2.43;;;;;;;5.64;48.15;95927.20;1779393;81;21735;-62
2021/04/26 06:34:29;;;;;;;4.00;2.87;;;;;;;5.79;49.09;95916.80;1779462;81;21160;-62
2021/04/26 06:36:57;;;;;;;3.80;2.50;;;;;;;5.96;48.38;95918.23;1779501;81;21145;-61
2021/04/26 06:39:25;;;;;;;4.73;2.53;;;;;;;6.07;48.40;95923.52;1779301;81;21559;-62
2021/04/26 06:41:53;;;;;;;5.00;2.33;;;;;;;6.05;46.82;95916.98;1779353;81;21160;-62
2021/04/26 06:44:20;;;;;;;5.90;3.97;;;;;;;6.06;45.94;95922.64;1779392;81;21283;-62
2021/04/26 06:46:48;;;;;;;4.60;3.10;;;;;;;6.07;44.88;95914.34;1779816;81;21284;-62
2021/04/26 06:49:19;;;;;;;4.50;2.87;;;;;;;6.11;44.94;95923.11;1779246;81;21689;-62
2021/04/26 06:51:45;;;;;;;3.37;2.10;;;;;;;6.08;44.33;95914.80;1779346;81;21173;-62
2021/04/26 06:54:12;;;;;;;4.13;2.67;;;;;;;6.08;43.96;95924.41;1779052;81;21298;-62
2021/04/26 06:56:41;;;;;;;3.50;1.93;;;;;;;6.15;40.83;95919.61;1779672;81;21102;-62
2021/04/26 06:59:09;;;;;;;5.57;2.63;;;;;;;6.24;41.84;95915.72;1779291;81;21738;-62
2021/04/26 07:01:36;;;;;;;5.50;3.60;;;;;;;6.32;42.72;95923.61;1779122;81;21323;-62
2021/04/26 07:04:06;;;;;;;4.70;2.97;;;;;;;6.24;40.35;95913.10;1779578;81;21157;-62
2021/04/26 07:06:33;;;;;;;3.83;2.20;;;;;;;6.18;40.87;95913.97;1779569;81;21137;-61
2021/04/26 07:09:01;;;;;;;4.33;2.50;;;;;;;6.23;39.38;95916.17;1779091;81;21110;-62
2021/04/26 07:11:28;;;;;;;3.90;2.40;;;;;;;6.38;38.67;95917.09;1779479;81;21141;-62
2021/04/26 07:13:56;;;;;;;4.80;2.20;;;;;;;6.40;38.86;95921.88;1779369;81;21156;-62
2021/04/26 07:16:26;;;;;;;5.63;2.63;;;;;;;6.44;39.09;95923.65;1779415;81;21137;-62
2021/04/26 07:18:54;;;;;;;4.53;2.53;;;;;;;6.42;37.55;95923.63;1779680;81;21149;-62
2021/04/26 07:21:23;;;;;;;5.80;2.80;;;;;;;6.54;38.46;95924.55;1779265;81;21106;-62
2021/04/26 07:23:50;;;;;;;4.20;2.47;;;;;;;6.59;37.33;95926.75;1778835;80;21272;-62
2021/04/26 07:26:19;;;;;;;3.70;2.50;;;;;;;6.66;38.03;95925.89;1779264;81;21275;-62
2021/04/26 07:28:46;;;;;;;3.27;2.30;;;;;;;6.69;36.48;95927.20;1779363;81;21157;-62
2021/04/26 07:31:14;;;;;;;4.43;2.20;;;;;;;6.92;39.27;95926.78;1779444;81;21575;-62
2021/04/26 07:33:42;;;;;;;6.77;2.73;;;;;;;7.02;36.65;95928.98;1779597;81;21127;-62
2021/04/26 07:36:10;;;;;;;4.43;2.17;;;;;;;7.18;37.22;95920.67;1779558;81;21162;-63
2021/04/26 07:38:37;;;;;;;3.20;2.00;;;;;;;7.08;37.22;95920.23;1779339;81;21222;-62
2021/04/26 07:41:06;;;;;;;3.73;2.30;;;;;;;7.07;38.01;95925.06;1779254;81;21308;-62
2021/04/26 07:43:33;;;;;;;2.27;1.93;;;;;;;7.13;36.47;95920.70;1779377;81;21153;-62
2021/04/26 07:46:01;;;;;;;2.90;2.00;;;;;;;7.23;36.80;95923.30;1779542;81;21107;-62
2021/04/26 07:48:29;;;;;;;3.70;1.80;;;;;;;7.41;35.90;95919.78;1779240;81;21288;-62
2021/04/26 07:50:57;;;;;;;2.70;1.77;;;;;;;7.44;35.78;95931.62;1779192;81;21596;-62
2021/04/26 07:53:25;;;;;;;2.50;1.80;;;;;;;7.56;39.27;95931.16;1779253;81;21287;-62
2021/04/26 07:55:52;;;;;;;3.27;1.80;;;;;;;7.74;36.25;95922.37;1779268;81;21134;-62
2021/04/26 07:58:20;;;;;;;3.03;1.63;;;;;;;7.77;35.40;95908.35;1779317;81;21160;-62
2021/04/26 08:00:47;;;;;;;4.60;2.30;;;;;;;7.81;36.14;95915.33;1779257;81;21286;-62
2021/04/26 08:03:16;;;;;;;5.60;2.20;;;;;;;7.82;34.02;95915.78;1779299;81;21742;-62
2021/04/26 08:05:44;;;;;;;3.57;2.20;;;;;;;7.75;33.63;95916.22;1779176;81;21264;-62
2021/04/26 08:08:11;;;;;;;3.27;2.10;;;;;;;7.78;33.70;95917.97;1779237;81;21275;-62
2021/04/26 08:10:41;;;;;;;4.73;2.23;;;;;;;7.73;34.26;95915.80;1779497;80;21153;-62
2021/04/26 08:13:09;;;;;;;4.40;2.10;;;;;;;7.80;33.96;95910.52;1779238;81;21177;-62
2021/04/26 08:15:37;;;;;;;5.10;2.27;;;;;;;7.91;35.96;95909.61;1779232;81;21268;-62
2021/04/26 08:18:05;;;;;;;6.60;2.57;;;;;;;8.03;33.47;95903.88;1779330;81;21707;-62
2021/04/26 08:20:35;;;;;;;2.80;1.60;;;;;;;7.99;32.20;95896.03;1779411;81;21137;-62
2021/04/26 08:23:06;;;;;;;2.90;2.30;;;;;;;8.14;32.21;95888.08;1779376;81;21691;-62
2021/04/26 08:25:34;;;;;;;3.90;1.60;;;;;;;8.31;33.09;95892.37;1783206;80;21244;-62
2021/04/26 08:28:02;;;;;;;2.37;1.70;;;;;;;8.24;32.04;95899.44;1785107;80;21264;-62
2021/04/26 08:30:30;;;;;;;3.13;1.80;;;;;;;8.25;33.37;95893.28;1785257;80;21161;-62
2021/04/26 08:32:58;;;;;;;2.90;1.80;;;;;;;8.22;33.66;95908.63;1785221;80;21136;-62
2021/04/26 08:35:26;;;;;;;3.07;1.53;;;;;;;8.19;32.23;95909.96;1757101;80;21136;-62
2021/04/26 08:37:55;;;;;;;4.13;2.00;;;;;;;8.42;32.26;95912.95;1785489;80;21137;-62
2021/04/26 08:40:24;;;;;;;4.07;1.87;;;;;;;8.59;31.82;95912.84;1785020;80;21156;-62
2021/04/26 08:42:52;;;;;;;3.30;2.47;;;;;;;8.72;33.65;95911.02;1785428;80;21562;-62
2021/04/26 08:45:21;;;;;;;3.03;1.57;;;;;;;8.85;31.91;95920.59;1785330;80;21125;-62
2021/04/26 08:47:49;;;;;;;3.27;2.00;;;;;;;8.82;30.72;95921.48;1785069;80;21129;-62
2021/04/26 08:50:18;;;;;;;3.07;1.63;;;;;;;8.88;31.14;95923.20;1785439;80;21153;-62
2021/04/26 08:52:45;;;;;;;3.80;1.67;;;;;;;8.97;30.14;95919.20;1785269;80;21590;-61
2021/04/26 08:55:15;;;;;;;1.93;1.73;;;;;;;9.16;31.46;95917.28;1784986;80;21149;-62
2021/04/26 08:57:43;;;;;;;3.60;2.43;;;;;;;9.27;30.87;95910.19;1785471;80;21596;-62
2021/04/26 09:00:13;;;;;;;3.67;2.00;;;;;;;9.34;31.34;95915.39;1785123;80;21611;-62
2021/04/26 09:02:56;;;;;;;4.63;2.00;;;;;;;9.28;30.51;95916.33;1785148;80;21105;-62
2021/04/26 09:05:45;;;;;;;3.65;1.77;;;;;;;9.34;31.42;95917.58;1785538;80;21132;-62
2021/04/26 09:08:16;;;;;;;3.77;1.50;;;;;;;9.42;31.40;95915.73;1785235;80;21150;-62
2021/04/26 09:10:52;;;;;;;4.60;2.10;;;;;;;9.71;34.37;95908.02;1784743;80;21152;-62
2021/04/26 09:13:45;;;;;;;7.47;1.63;;;;;;;9.76;31.80;95889.08;1785287;80;21149;-62
2021/04/26 09:16:22;;;;;;;2.80;2.20;;;;;;;9.73;28.17;95894.39;1785362;80;21161;-62
2021/04/26 09:18:54;;;;;;;4.03;1.83;;;;;;;9.82;30.30;95896.91;1785671;80;21117;-62
2021/04/26 09:21:48;;;;;;;3.43;2.10;;;;;;;9.82;31.39;95899.55;1785453;80;21133;-63
2021/04/26 09:24:36;;;;;;;5.13;1.90;;;;;;;9.83;30.55;95904.39;1779532;80;21125;-63
2021/04/26 09:27:13;;;;;;;4.43;1.93;;;;;;;10.05;32.40;95893.14;1784604;80;21145;-62
2021/04/26 09:29:42;;;;;;;3.70;2.00;;;;;;;10.16;31.89;95901.36;1784995;80;21275;-62
2021/04/26 09:32:20;;;;;;;3.10;2.00;;;;;;;10.19;29.79;95893.86;1785146;80;21328;-62
2021/04/26 09:34:51;;;;;;;7.40;3.03;;;;;;;10.02;27.93;95901.09;1756978;80;21121;-62
2021/04/26 09:37:23;;;;;;;4.10;1.77;;;;;;;10.15;29.63;95899.63;1785256;80;21153;-62
2021/04/26 09:40:11;;;;;;;2.80;1.70;;;;;;;10.29;32.22;95902.57;1785230;80;21125;-62
2021/04/26 09:42:44;;;;;;;3.43;1.93;;;;;;;10.53;31.69;95889.06;1785260;80;21129;-62
2021/04/26 09:45:34;;;;;;;5.00;2.12;;;;;;;10.63;29.62;95885.82;1785282;80;21271;-62
2021/04/26 09:48:21;;;;;;;4.27;2.43;;;;;;;10.90;30.81;95882.38;1781982;80;21137;-62
2021/04/26 09:51:10;;;;;;;3.33;2.40;;;;;;;11.07;28.94;95882.98;1784659;80;21137;-62
2021/04/26 09:53:47;;;;;;;4.87;2.00;;;;;;;11.00;27.78;95878.23;1785347;80;21283;-62
2021/04/26 09:56:31;;;;;;;3.53;1.97;;;;;;;10.93;29.30;95887.14;1785222;80;21097;-62
2021/04/26 09:59:04;;;;;;;2.80;2.13;;;;;;;10.94;29.26;95880.98;1785148;80;21145;-62
2021/04/26 10:01:35;;;;;;;3.20;2.30;;;;;;;11.09;28.78;95875.91;1785428;80;21118;-62
2021/04/26 10:04:06;;;;;;;2.57;1.77;;;;;;;10.94;28.04;95873.06;1785024;80;21294;-62
2021/04/26 10:06:36;;;;;;;2.80;1.90;;;;;;;10.86;29.57;95868.78;1785680;80;21130;-62
2021/04/26 10:09:08;;;;;;;3.80;2.30;;;;;;;11.02;29.79;95868.52;1785328;80;21516;-62
2021/04/26 10:11:38;;;;;;;4.37;2.87;;;;;;;11.10;28.40;95866.22;1784942;80;21280;-62
2021/04/26 10:14:10;;;;;;;11.07;4.83;;;;;;;10.95;29.29;95856.77;1785445;80;21236;-62
2021/04/26 10:17:04;;;;;;;8.47;3.67;;;;;;;10.91;28.06;95862.56;1785429;80;21129;-62
2021/04/26 10:19:47;;;;;;;2.70;2.17;;;;;;;10.95;28.34;95862.05;1785321;80;21126;-62
2021/04/26 10:22:39;;;;;;;4.35;2.55;;;;;;;11.05;28.41;95856.59;1785273;80;21272;-62
2021/04/26 10:25:10;;;;;;;4.43;2.40;;;;;;;11.29;28.41;95851.81;1784868;80;21590;-62
2021/04/26 10:27:45;;;;;;;7.50;3.23;;;;;;;11.55;30.24;95838.13;1785238;80;21141;-62
2021/04/26 10:30:18;;;;;;;6.17;3.17;;;;;;;11.62;28.52;95841.08;1785319;80;21118;-62
2021/04/26 10:33:06;;;;;;;7.13;3.83;;;;;;;11.51;27.27;95847.00;1785172;80;21256;-62
2021/04/26 10:35:48;;;;;;;5.30;2.83;;;;;;;11.37;28.12;95839.80;1785253;80;21568;-62
2021/04/26 10:38:40;;;;;;;5.40;2.37;;;;;;;11.61;30.96;95833.17;1780654;79;22890;-62
2021/04/26 10:41:14;;;;;;;6.10;3.67;;;;;;;11.84;30.63;95832.72;1748656;82;21606;-62
2021/04/26 10:43:47;;;;;;;5.45;2.52;;;;;;;11.93;28.77;95820.69;1754145;81;21144;-62
2021/04/26 10:46:19;;;;;;;;;;;;;;;11.83;29.30;95812.03;1756280;82;21591;-62
2021/04/26 10:49:11;;;;;;;6.47;3.20;;;;;;;11.93;27.60;95810.56;1754179;82;20142;-62
2021/04/26 10:51:39;;;;;;;6.20;2.20;;;;;;;11.84;29.52;95801.89;1754149;82;21109;-62
2021/04/26 10:54:08;;;;;;;5.57;3.07;;;;;;;11.81;29.82;95801.93;1754242;82;21555;-62
2021/04/26 10:56:37;;;;;;;4.87;2.73;;;;;;;12.02;28.62;95797.13;1753874;82;21149;-62
2021/04/26 10:59:25;;;;;;;7.47;3.73;;;;;;;12.04;27.08;95788.72;1754156;82;21579;-62
2021/04/26 11:01:53;;;;;;;4.23;2.70;;;;;;;11.86;28.06;95788.20;1753807;82;21117;-62
2021/04/26 11:04:21;;;;;;;4.67;2.37;;;;;;;11.87;27.14;95786.45;1753968;82;21146;-62
2021/04/26 11:07:17;;;;;;;3.87;2.20;;;;;;;11.79;26.08;95787.90;1753837;82;21592;-62
2021/04/26 11:09:44;;;;;;;3.77;2.50;;;;;;;12.05;30.46;95791.80;1753972;82;21152;-62
2021/04/26 11:12:33;;;;;;;4.50;2.53;;;;;;;12.32;27.47;95775.76;1753327;82;21145;-62
2021/04/26 11:15:19;;;;;;;2.17;1.90;;;;;;;12.40;26.43;95782.20;1754281;82;21145;-62
2021/04/26 11:17:48;;;;;;;5.03;2.07;;;;;;;12.62;26.09;95780.80;1754140;82;21165;-62
2021/04/26 11:20:24;;;;;;;4.73;2.77;;;;;;;12.83;28.65;95764.88;1754066;81;21161;-62
2021/04/26 11:22:56;;;;;;;4.93;2.50;;;;;;;13.05;28.97;95767.83;1753970;81;21122;-61
2021/04/26 11:25:34;;;;;;;3.03;1.97;;;;;;;13.00;25.43;95765.75;1754150;82;21098;-62
2021/04/26 11:28:03;;;;;;;4.80;2.30;;;;;;;12.95;29.58;95755.30;1753873;82;21129;-62
2021/04/26 11:30:34;;;;;;;4.77;2.40;;;;;;;13.34;28.58;95759.62;1754153;81;21110;-62
2021/04/26 11:33:14;;;;;;;3.93;1.97;;;;;;;13.38;25.83;95750.66;1753949;81;21141;-62
2021/04/26 11:36:13;;;;;;;3.20;1.97;;;;;;;13.68;30.93;95750.27;1753767;82;21141;-61
2021/04/26 11:38:45;;;;;;;3.90;2.40;;;;;;;14.04;27.74;95743.05;1754031;82;21125;-62
2021/04/26 11:41:13;;;;;;;3.67;2.40;;;;;;;14.81;28.23;95730.52;1753936;82;21122;-62
2021/04/26 11:43:46;;;;;;;2.73;2.00;;;;;;;15.02;22.91;95732.91;1754018;81;21102;-62
2021/04/26 11:46:14;;;;;;;4.03;2.00;;;;;;;15.12;23.17;95721.07;1754263;82;21121;-62
2021/04/26 11:48:41;;;;;;;3.80;2.20;;;;;;;15.28;22.48;95718.27;1753636;81;21144;-62
2021/04/26 11:51:09;;;;;;;4.80;2.63;;;;;;;15.87;23.80;95713.53;1753682;82;21106;-62
2021/04/26 11:53:37;;;;;;;3.85;2.12;;;;;;;16.25;21.95;95715.19;1724033;82;21121;-62
2021/04/26 11:56:13;;;;;;;2.87;1.92;;;;;;;16.41;21.80;95707.02;1753214;82;21192;-62
2021/04/26 11:58:41;;;;;;;4.08;2.40;;;;;;;16.11;21.06;95706.42;1753414;82;21590;-62
2021/04/26 12:01:14;;;;;;;3.75;2.05;;;;;;;16.37;21.68;95710.25;1753784;82;21140;-62